sensor_id;sensor_type;location;lat;lon;timestamp;pressure;altitude;pressure_sealevel;temperature;humidity
6530;BME280;3298;42.688;23.366;2023-02-18T00:02:10;51706.84;;;-145.06;50.36
6530;BME280;3298;42.688;23.366;2023-02-18T00:04:38;51729.38;;;-145.06;49.97
6530;BME280;3298;42.688;23.366;2023-02-18T00:07:05;51700.72;;;-145.06;50.01
6530;BME280;3298;42.688;23.366;2023-02-18T00:09:31;51706.84;;;-145.06;50.75
6530;BME280;3298;42.688;23.366;2023-02-18T00:11:58;51717.09;;;-145.06;51.16
6530;BME280;3298;42.688;23.366;2023-02-18T00:14:25;51717.09;;;-145.06;50.70
6530;BME280;3298;42.688;23.366;2023-02-18T00:16:53;51717.09;;;-145.06;51.36
6530;BME280;3298;42.688;23.366;2023-02-18T00:19:19;51700.72;;;-145.06;50.67
6530;BME280;3298;42.688;23.366;2023-02-18T00:21:47;51702.75;;;-145.06;50.95
6530;BME280;3298;42.688;23.366;2023-02-18T00:24:15;51721.19;;;-145.06;50.50
6530;BME280;3298;42.688;23.366;2023-02-18T00:26:42;51704.81;;;-145.06;50.94
6530;BME280;3298;42.688;23.366;2023-02-18T00:29:09;51708.91;;;-145.06;51.05
6530;BME280;3298;42.688;23.366;2023-02-18T00:31:38;51737.56;;;-145.06;51.60
6530;BME280;3298;42.688;23.366;2023-02-18T00:34:05;51713.00;;;-145.06;51.60
6530;BME280;3298;42.688;23.366;2023-02-18T00:36:32;51733.47;;;-145.06;51.29
6530;BME280;3298;42.688;23.366;2023-02-18T00:39:02;51715.03;;;-145.06;51.43
6530;BME280;3298;42.688;23.366;2023-02-18T00:41:30;51723.22;;;-145.06;51.75
6530;BME280;3298;42.688;23.366;2023-02-18T00:43:57;51710.94;;;-145.06;50.48
6530;BME280;3298;42.688;23.366;2023-02-18T00:46:24;51706.84;;;-145.06;51.22
6530;BME280;3298;42.688;23.366;2023-02-18T00:48:51;51719.13;;;-145.06;50.86
6530;BME280;3298;42.688;23.366;2023-02-18T00:51:18;51715.03;;;-145.06;51.08
6530;BME280;3298;42.688;23.366;2023-02-18T00:53:45;51708.91;;;-145.06;51.20
6530;BME280;3298;42.688;23.366;2023-02-18T00:56:14;51700.72;;;-145.06;50.99
6530;BME280;3298;42.688;23.366;2023-02-18T00:58:40;51721.19;;;-145.06;50.95
6530;BME280;3298;42.688;23.366;2023-02-18T01:01:08;51725.28;;;-145.06;51.06
6530;BME280;3298;42.688;23.366;2023-02-18T01:03:36;51751.88;;;-145.06;51.07
6530;BME280;3298;42.688;23.366;2023-02-18T01:06:04;51717.09;;;-145.06;51.50
6530;BME280;3298;42.688;23.366;2023-02-18T01:08:32;51719.13;;;-145.06;51.41
6530;BME280;3298;42.688;23.366;2023-02-18T01:10:59;51708.91;;;-145.06;51.72
6530;BME280;3298;42.688;23.366;2023-02-18T01:13:28;51719.13;;;-145.06;51.62
6530;BME280;3298;42.688;23.366;2023-02-18T01:15:55;51704.81;;;-145.06;52.09
6530;BME280;3298;42.688;23.366;2023-02-18T01:18:23;51729.38;;;-145.06;51.78
6530;BME280;3298;42.688;23.366;2023-02-18T01:20:50;51729.38;;;-145.06;52.23
6530;BME280;3298;42.688;23.366;2023-02-18T01:23:17;51704.81;;;-145.06;51.75
6530;BME280;3298;42.688;23.366;2023-02-18T01:25:44;51713.00;;;-145.06;51.94
6530;BME280;3298;42.688;23.366;2023-02-18T01:28:12;51733.47;;;-145.06;52.23
6530;BME280;3298;42.688;23.366;2023-02-18T01:30:41;51715.03;;;-145.06;52.56
6530;BME280;3298;42.688;23.366;2023-02-18T01:33:08;51753.94;;;-145.06;52.39
6530;BME280;3298;42.688;23.366;2023-02-18T01:35:36;51717.09;;;-145.06;52.76
6530;BME280;3298;42.688;23.366;2023-02-18T01:38:03;51706.84;;;-145.06;52.49
6530;BME280;3298;42.688;23.366;2023-02-18T01:40:30;51735.50;;;-145.06;52.43
6530;BME280;3298;42.688;23.366;2023-02-18T01:42:57;51727.31;;;-145.06;51.85
6530;BME280;3298;42.688;23.366;2023-02-18T01:45:49;51706.84;;;-145.06;52.10
6530;BME280;3298;42.688;23.366;2023-02-18T01:48:19;51706.84;;;-145.06;52.11
6530;BME280;3298;42.688;23.366;2023-02-18T01:50:49;51741.66;;;-145.06;52.26
6530;BME280;3298;42.688;23.366;2023-02-18T01:53:19;51739.59;;;-145.06;52.38
6530;BME280;3298;42.688;23.366;2023-02-18T01:55:48;51729.38;;;-145.06;52.58
6530;BME280;3298;42.688;23.366;2023-02-18T01:58:15;51710.94;;;-145.06;53.42
6530;BME280;3298;42.688;23.366;2023-02-18T02:00:42;51700.72;;;-145.06;53.61
6530;BME280;3298;42.688;23.366;2023-02-18T02:03:10;51729.38;;;-145.06;53.79
6530;BME280;3298;42.688;23.366;2023-02-18T02:05:37;51725.28;;;-145.06;54.05
6530;BME280;3298;42.688;23.366;2023-02-18T02:08:04;51680.25;;;-145.06;53.74
6530;BME280;3298;42.688;23.366;2023-02-18T02:10:47;51715.03;;;-145.06;53.33
6530;BME280;3298;42.688;23.366;2023-02-18T02:13:27;51727.31;;;-145.06;53.51
6530;BME280;3298;42.688;23.366;2023-02-18T02:15:57;51747.78;;;-145.06;53.32
6530;BME280;3298;42.688;23.366;2023-02-18T02:18:40;51700.72;;;-145.06;53.39
6530;BME280;3298;42.688;23.366;2023-02-18T02:24:17;51719.13;;;-145.06;52.35
6530;BME280;3298;42.688;23.366;2023-02-18T02:27:11;51719.13;;;-145.06;52.05
6530;BME280;3298;42.688;23.366;2023-02-18T02:30:11;51700.72;;;-145.06;52.08
6530;BME280;3298;42.688;23.366;2023-02-18T02:36:02;51690.47;;;-145.06;52.66
6530;BME280;3298;42.688;23.366;2023-02-18T02:38:36;51717.09;;;-145.06;52.49
6530;BME280;3298;42.688;23.366;2023-02-18T02:41:12;51704.81;;;-145.06;53.20
6530;BME280;3298;42.688;23.366;2023-02-18T02:43:50;51708.91;;;-145.06;53.24
6530;BME280;3298;42.688;23.366;2023-02-18T02:46:21;51729.38;;;-145.06;53.23
6530;BME280;3298;42.688;23.366;2023-02-18T02:48:53;51719.13;;;-145.06;53.57
6530;BME280;3298;42.688;23.366;2023-02-18T02:51:28;51684.34;;;-145.06;53.86
6530;BME280;3298;42.688;23.366;2023-02-18T02:54:08;51702.75;;;-145.06;53.63
6530;BME280;3298;42.688;23.366;2023-02-18T02:56:36;51729.38;;;-145.06;53.08
6530;BME280;3298;42.688;23.366;2023-02-18T02:59:05;51696.63;;;-145.06;53.04
6530;BME280;3298;42.688;23.366;2023-02-18T03:01:39;51725.28;;;-145.06;53.21
6530;BME280;3298;42.688;23.366;2023-02-18T03:04:25;51745.75;;;-145.06;52.81
6530;BME280;3298;42.688;23.366;2023-02-18T03:07:23;51735.50;;;-145.06;52.59
6530;BME280;3298;42.688;23.366;2023-02-18T03:10:07;51708.91;;;-145.06;52.81
6530;BME280;3298;42.688;23.366;2023-02-18T03:12:48;51710.94;;;-145.06;53.27
6530;BME280;3298;42.688;23.366;2023-02-18T03:15:22;51694.56;;;-145.06;53.48
6530;BME280;3298;42.688;23.366;2023-02-18T03:17:54;51715.03;;;-145.06;53.60
6530;BME280;3298;42.688;23.366;2023-02-18T03:20:25;51725.28;;;-145.06;53.25
6530;BME280;3298;42.688;23.366;2023-02-18T03:22:55;51704.81;;;-145.06;53.26
6530;BME280;3298;42.688;23.366;2023-02-18T03:25:24;51723.22;;;-145.06;53.48
6530;BME280;3298;42.688;23.366;2023-02-18T03:27:54;51721.19;;;-145.06;53.42
6530;BME280;3298;42.688;23.366;2023-02-18T03:30:24;51733.47;;;-145.06;53.63
6530;BME280;3298;42.688;23.366;2023-02-18T03:32:57;51706.84;;;-145.06;54.57
6530;BME280;3298;42.688;23.366;2023-02-18T03:35:26;51731.41;;;-145.06;54.45
6530;BME280;3298;42.688;23.366;2023-02-18T03:37:59;51708.91;;;-145.06;54.62
6530;BME280;3298;42.688;23.366;2023-02-18T03:40:27;51686.38;;;-145.06;54.06
6530;BME280;3298;42.688;23.366;2023-02-18T03:42:55;51686.38;;;-145.06;53.73
6530;BME280;3298;42.688;23.366;2023-02-18T03:45:22;51696.63;;;-145.06;53.18
6530;BME280;3298;42.688;23.366;2023-02-18T03:47:49;51700.72;;;-145.06;53.18
6530;BME280;3298;42.688;23.366;2023-02-18T03:50:16;51713.00;;;-145.06;53.13
6530;BME280;3298;42.688;23.366;2023-02-18T03:52:43;51717.09;;;-145.06;53.08
6530;BME280;3298;42.688;23.366;2023-02-18T03:55:11;51723.22;;;-145.06;53.35
6530;BME280;3298;42.688;23.366;2023-02-18T03:57:38;51696.63;;;-145.06;53.63
6530;BME280;3298;42.688;23.366;2023-02-18T04:00:06;51725.28;;;-145.06;53.39
6530;BME280;3298;42.688;23.366;2023-02-18T04:02:33;51700.72;;;-145.06;53.65
6530;BME280;3298;42.688;23.366;2023-02-18T04:05:00;51700.72;;;-145.06;53.55
6530;BME280;3298;42.688;23.366;2023-02-18T04:07:27;51713.00;;;-145.06;53.69
6530;BME280;3298;42.688;23.366;2023-02-18T04:09:54;51713.00;;;-145.06;53.74
6530;BME280;3298;42.688;23.366;2023-02-18T04:12:22;51694.56;;;-145.06;53.97
6530;BME280;3298;42.688;23.366;2023-02-18T04:14:49;51704.81;;;-145.06;54.19
6530;BME280;3298;42.688;23.366;2023-02-18T04:17:16;51667.97;;;-145.06;54.24
6530;BME280;3298;42.688;23.366;2023-02-18T04:19:42;51702.75;;;-145.06;53.97
6530;BME280;3298;42.688;23.366;2023-02-18T04:22:09;51688.44;;;-145.06;54.21
6530;BME280;3298;42.688;23.366;2023-02-18T04:24:36;51700.72;;;-145.06;54.23
6530;BME280;3298;42.688;23.366;2023-02-18T04:27:03;51698.66;;;-145.06;53.73
6530;BME280;3298;42.688;23.366;2023-02-18T04:29:31;51686.38;;;-145.06;53.79
6530;BME280;3298;42.688;23.366;2023-02-18T04:31:58;51713.00;;;-145.06;53.73
6530;BME280;3298;42.688;23.366;2023-02-18T04:34:25;51708.91;;;-145.06;53.70
6530;BME280;3298;42.688;23.366;2023-02-18T04:36:51;51700.72;;;-145.06;54.44
6530;BME280;3298;42.688;23.366;2023-02-18T04:39:18;51688.44;;;-145.06;54.76
6530;BME280;3298;42.688;23.366;2023-02-18T04:41:45;51688.44;;;-145.06;54.46
6530;BME280;3298;42.688;23.366;2023-02-18T04:44:12;51700.72;;;-145.06;54.75
6530;BME280;3298;42.688;23.366;2023-02-18T04:46:40;51667.97;;;-145.06;54.84
6530;BME280;3298;42.688;23.366;2023-02-18T04:49:07;51694.56;;;-145.06;54.85
6530;BME280;3298;42.688;23.366;2023-02-18T04:51:33;51727.31;;;-145.06;54.52
6530;BME280;3298;42.688;23.366;2023-02-18T04:54:02;51696.63;;;-145.06;54.78
6530;BME280;3298;42.688;23.366;2023-02-18T04:56:28;51706.84;;;-145.06;54.72
6530;BME280;3298;42.688;23.366;2023-02-18T04:58:55;51702.75;;;-145.06;55.01
6530;BME280;3298;42.688;23.366;2023-02-18T05:01:22;51708.91;;;-145.06;55.62
6530;BME280;3298;42.688;23.366;2023-02-18T05:03:50;51717.09;;;-145.06;55.61
6530;BME280;3298;42.688;23.366;2023-02-18T05:06:17;51696.63;;;-145.06;55.40
6530;BME280;3298;42.688;23.366;2023-02-18T05:08:44;51708.91;;;-145.06;55.22
6530;BME280;3298;42.688;23.366;2023-02-18T05:11:10;51729.38;;;-145.06;54.94
6530;BME280;3298;42.688;23.366;2023-02-18T05:13:37;51731.41;;;-145.06;55.01
6530;BME280;3298;42.688;23.366;2023-02-18T05:16:04;51680.25;;;-145.06;55.10
6530;BME280;3298;42.688;23.366;2023-02-18T05:18:31;51715.03;;;-145.06;55.14
6530;BME280;3298;42.688;23.366;2023-02-18T05:20:59;51725.28;;;-145.06;54.67
6530;BME280;3298;42.688;23.366;2023-02-18T05:23:26;51706.84;;;-145.06;54.86
6530;BME280;3298;42.688;23.366;2023-02-18T05:25:53;51710.94;;;-145.06;55.20
6530;BME280;3298;42.688;23.366;2023-02-18T05:28:21;51710.94;;;-145.06;54.78
6530;BME280;3298;42.688;23.366;2023-02-18T05:30:48;51704.81;;;-145.06;53.92
6530;BME280;3298;42.688;23.366;2023-02-18T05:33:15;51723.22;;;-145.06;54.13
6530;BME280;3298;42.688;23.366;2023-02-18T05:35:42;51708.91;;;-145.06;54.17
6530;BME280;3298;42.688;23.366;2023-02-18T05:38:10;51708.91;;;-145.06;54.21
6530;BME280;3298;42.688;23.366;2023-02-18T05:40:37;51735.50;;;-145.06;54.31
6530;BME280;3298;42.688;23.366;2023-02-18T05:43:03;51719.13;;;-145.06;54.04
6530;BME280;3298;42.688;23.366;2023-02-18T05:45:30;51719.13;;;-145.06;54.49
6530;BME280;3298;42.688;23.366;2023-02-18T05:47:57;51700.72;;;-145.06;55.18
6530;BME280;3298;42.688;23.366;2023-02-18T05:50:24;51680.25;;;-145.06;54.71
6530;BME280;3298;42.688;23.366;2023-02-18T05:52:51;51737.56;;;-145.06;54.71
6530;BME280;3298;42.688;23.366;2023-02-18T05:55:19;51696.63;;;-145.06;54.80
6530;BME280;3298;42.688;23.366;2023-02-18T05:57:46;51706.84;;;-145.06;54.53
6530;BME280;3298;42.688;23.366;2023-02-18T06:00:13;51704.81;;;-145.06;54.36
6530;BME280;3298;42.688;23.366;2023-02-18T06:02:40;51721.19;;;-145.06;54.40
6530;BME280;3298;42.688;23.366;2023-02-18T06:05:08;51737.56;;;-145.06;54.45
6530;BME280;3298;42.688;23.366;2023-02-18T06:07:35;51704.81;;;-145.06;54.23
6530;BME280;3298;42.688;23.366;2023-02-18T06:10:02;51729.38;;;-145.06;54.00
6530;BME280;3298;42.688;23.366;2023-02-18T06:12:31;51721.19;;;-145.06;53.79
6530;BME280;3298;42.688;23.366;2023-02-18T06:14:57;51700.72;;;-145.06;53.67
6530;BME280;3298;42.688;23.366;2023-02-18T06:17:24;51704.81;;;-145.06;52.98
6530;BME280;3298;42.688;23.366;2023-02-18T06:19:51;51680.25;;;-145.06;53.22
6530;BME280;3298;42.688;23.366;2023-02-18T06:22:18;51708.91;;;-145.06;52.82
6530;BME280;3298;42.688;23.366;2023-02-18T06:24:45;51717.09;;;-145.06;53.11
6530;BME280;3298;42.688;23.366;2023-02-18T06:27:11;51684.34;;;-145.06;52.46
6530;BME280;3298;42.688;23.366;2023-02-18T06:29:40;51721.19;;;-145.06;52.12
6530;BME280;3298;42.688;23.366;2023-02-18T06:32:07;51688.44;;;-145.06;52.36
6530;BME280;3298;42.688;23.366;2023-02-18T06:34:33;51700.72;;;-145.06;52.48
6530;BME280;3298;42.688;23.366;2023-02-18T06:37:00;51723.22;;;-145.06;52.95
6530;BME280;3298;42.688;23.366;2023-02-18T06:39:27;51688.44;;;-145.06;52.43
6530;BME280;3298;42.688;23.366;2023-02-18T06:41:54;51719.13;;;-145.06;52.35
6530;BME280;3298;42.688;23.366;2023-02-18T06:44:21;51729.38;;;-145.06;52.64
6530;BME280;3298;42.688;23.366;2023-02-18T06:46:49;51704.81;;;-145.06;53.42
6530;BME280;3298;42.688;23.366;2023-02-18T06:49:16;51723.22;;;-145.06;52.96
6530;BME280;3298;42.688;23.366;2023-02-18T06:51:42;51706.84;;;-145.06;52.82
6530;BME280;3298;42.688;23.366;2023-02-18T06:54:09;51702.75;;;-145.06;52.08
6530;BME280;3298;42.688;23.366;2023-02-18T06:56:36;51715.03;;;-145.06;51.99
6530;BME280;3298;42.688;23.366;2023-02-18T06:59:03;51696.63;;;-145.06;52.71
6530;BME280;3298;42.688;23.366;2023-02-18T07:01:29;51717.09;;;-145.06;52.42
6530;BME280;3298;42.688;23.366;2023-02-18T07:03:58;51688.44;;;-145.06;52.79
6530;BME280;3298;42.688;23.366;2023-02-18T07:06:24;51708.91;;;-145.06;52.20
6530;BME280;3298;42.688;23.366;2023-02-18T07:08:51;51745.75;;;-145.06;52.32
6530;BME280;3298;42.688;23.366;2023-02-18T07:11:18;51700.72;;;-145.06;50.70
6530;BME280;3298;42.688;23.366;2023-02-18T07:13:45;51725.28;;;-145.06;50.21
6530;BME280;3298;42.688;23.366;2023-02-18T07:16:11;51737.56;;;-145.06;50.33
6530;BME280;3298;42.688;23.366;2023-02-18T07:18:38;51700.72;;;-145.06;50.09
6530;BME280;3298;42.688;23.366;2023-02-18T07:21:06;51753.94;;;-145.06;50.66
6530;BME280;3298;42.688;23.366;2023-02-18T07:23:33;51729.38;;;-145.06;50.14
6530;BME280;3298;42.688;23.366;2023-02-18T07:26:05;51725.28;;;-145.06;50.23
6530;BME280;3298;42.688;23.366;2023-02-18T07:28:32;51704.81;;;-145.06;49.94
6530;BME280;3298;42.688;23.366;2023-02-18T07:30:59;51725.28;;;-145.06;49.24
6530;BME280;3298;42.688;23.366;2023-02-18T07:33:26;51727.31;;;-145.06;49.11
6530;BME280;3298;42.688;23.366;2023-02-18T07:35:54;51713.00;;;-145.06;49.09
6530;BME280;3298;42.688;23.366;2023-02-18T07:38:23;51710.94;;;-145.06;49.19
6530;BME280;3298;42.688;23.366;2023-02-18T07:40:50;51706.84;;;-145.06;48.82
6530;BME280;3298;42.688;23.366;2023-02-18T07:43:17;51708.91;;;-145.06;48.62
6530;BME280;3298;42.688;23.366;2023-02-18T07:45:44;51731.41;;;-145.06;48.89
6530;BME280;3298;42.688;23.366;2023-02-18T07:48:11;51721.19;;;-145.06;48.60
6530;BME280;3298;42.688;23.366;2023-02-18T07:50:38;51727.31;;;-145.06;48.40
6530;BME280;3298;42.688;23.366;2023-02-18T07:53:06;51717.09;;;-145.06;47.95
6530;BME280;3298;42.688;23.366;2023-02-18T07:55:35;51723.22;;;-145.06;47.97
6530;BME280;3298;42.688;23.366;2023-02-18T07:58:16;51717.09;;;-145.06;48.19
6530;BME280;3298;42.688;23.366;2023-02-18T08:00:43;51721.19;;;-145.06;47.68
6530;BME280;3298;42.688;23.366;2023-02-18T08:03:12;51706.84;;;-145.06;47.65
6530;BME280;3298;42.688;23.366;2023-02-18T08:05:39;51733.47;;;-145.06;47.38
6530;BME280;3298;42.688;23.366;2023-02-18T08:08:05;51710.94;;;-145.06;46.86
6530;BME280;3298;42.688;23.366;2023-02-18T08:10:34;51725.28;;;-145.06;46.75
6530;BME280;3298;42.688;23.366;2023-02-18T08:13:00;51698.66;;;-145.06;46.41
6530;BME280;3298;42.688;23.366;2023-02-18T08:15:27;51713.00;;;-145.06;45.82
6530;BME280;3298;42.688;23.366;2023-02-18T08:17:54;51721.19;;;-145.06;45.90
6530;BME280;3298;42.688;23.366;2023-02-18T08:20:21;51708.91;;;-145.06;45.54
6530;BME280;3298;42.688;23.366;2023-02-18T08:22:48;51737.56;;;-145.06;44.98
6530;BME280;3298;42.688;23.366;2023-02-18T08:25:14;51717.09;;;-145.06;44.55
6530;BME280;3298;42.688;23.366;2023-02-18T08:27:43;51741.66;;;-145.06;44.10
6530;BME280;3298;42.688;23.366;2023-02-18T08:30:10;51719.13;;;-145.06;44.09
6530;BME280;3298;42.688;23.366;2023-02-18T08:32:37;51725.28;;;-145.06;44.11
6530;BME280;3298;42.688;23.366;2023-02-18T08:35:04;51729.38;;;-145.06;43.90
6530;BME280;3298;42.688;23.366;2023-02-18T08:37:32;51729.38;;;-145.06;43.84
6530;BME280;3298;42.688;23.366;2023-02-18T08:40:00;51733.47;;;-145.06;43.69
6530;BME280;3298;42.688;23.366;2023-02-18T08:42:27;51715.03;;;-145.06;44.00
6530;BME280;3298;42.688;23.366;2023-02-18T08:44:55;51741.66;;;-145.06;43.97
6530;BME280;3298;42.688;23.366;2023-02-18T08:47:22;51725.28;;;-145.06;43.36
6530;BME280;3298;42.688;23.366;2023-02-18T08:49:49;51731.41;;;-145.06;43.40
6530;BME280;3298;42.688;23.366;2023-02-18T08:52:15;51747.78;;;-145.06;43.28
6530;BME280;3298;42.688;23.366;2023-02-18T08:54:42;51762.13;;;-145.06;43.12
6530;BME280;3298;42.688;23.366;2023-02-18T08:57:09;51758.03;;;-145.06;43.15
6530;BME280;3298;42.688;23.366;2023-02-18T08:59:36;51747.78;;;-145.06;42.91
6530;BME280;3298;42.688;23.366;2023-02-18T09:02:04;51715.03;;;-145.06;42.99
6530;BME280;3298;42.688;23.366;2023-02-18T09:04:31;51721.19;;;-145.06;42.50
6530;BME280;3298;42.688;23.366;2023-02-18T09:06:58;51725.28;;;-145.06;42.65
6530;BME280;3298;42.688;23.366;2023-02-18T09:09:24;51735.50;;;-145.06;42.31
6530;BME280;3298;42.688;23.366;2023-02-18T09:11:51;51749.84;;;-145.06;42.53
6530;BME280;3298;42.688;23.366;2023-02-18T09:14:18;51727.31;;;-145.06;42.48
6530;BME280;3298;42.688;23.366;2023-02-18T09:16:45;51713.00;;;-145.06;42.75
6530;BME280;3298;42.688;23.366;2023-02-18T09:19:14;51717.09;;;-145.06;42.20
6530;BME280;3298;42.688;23.366;2023-02-18T09:21:40;51741.66;;;-145.06;42.43
6530;BME280;3298;42.688;23.366;2023-02-18T09:24:07;51737.56;;;-145.06;42.47
6530;BME280;3298;42.688;23.366;2023-02-18T09:26:35;51747.78;;;-145.06;42.23
6530;BME280;3298;42.688;23.366;2023-02-18T09:29:02;51755.97;;;-145.06;42.37
6530;BME280;3298;42.688;23.366;2023-02-18T09:31:29;51713.00;;;-145.06;41.98
6530;BME280;3298;42.688;23.366;2023-02-18T09:33:58;51753.94;;;-145.06;42.25
6530;BME280;3298;42.688;23.366;2023-02-18T09:36:26;51741.66;;;-145.06;42.03
6530;BME280;3298;42.688;23.366;2023-02-18T09:38:53;51727.31;;;-145.06;41.27
6530;BME280;3298;42.688;23.366;2023-02-18T09:41:27;51733.47;;;-145.06;41.36
6530;BME280;3298;42.688;23.366;2023-02-18T09:43:58;51729.38;;;-145.06;41.31
6530;BME280;3298;42.688;23.366;2023-02-18T09:46:29;51729.38;;;-145.06;41.09
6530;BME280;3298;42.688;23.366;2023-02-18T09:49:00;51745.75;;;-145.06;40.65
6530;BME280;3298;42.688;23.366;2023-02-18T09:51:29;51749.84;;;-145.06;40.64
6530;BME280;3298;42.688;23.366;2023-02-18T09:53:56;51741.66;;;-145.06;40.75
6530;BME280;3298;42.688;23.366;2023-02-18T09:56:27;51753.94;;;-145.06;40.68
6530;BME280;3298;42.688;23.366;2023-02-18T09:58:57;51751.88;;;-145.06;40.00
6530;BME280;3298;42.688;23.366;2023-02-18T10:01:27;51739.59;;;-145.06;40.36
6530;BME280;3298;42.688;23.366;2023-02-18T10:03:59;51782.59;;;-145.06;40.59
6530;BME280;3298;42.688;23.366;2023-02-18T10:06:32;51733.47;;;-145.06;40.09
6530;BME280;3298;42.688;23.366;2023-02-18T10:09:01;51735.50;;;-145.06;40.28
6530;BME280;3298;42.688;23.366;2023-02-18T10:11:30;51749.84;;;-145.06;40.37
6530;BME280;3298;42.688;23.366;2023-02-18T10:14:00;51749.84;;;-145.06;39.94
6530;BME280;3298;42.688;23.366;2023-02-18T10:16:29;51751.88;;;-145.06;39.78
6530;BME280;3298;42.688;23.366;2023-02-18T10:18:58;51758.03;;;-145.06;39.36
6530;BME280;3298;42.688;23.366;2023-02-18T10:21:27;51735.50;;;-145.06;38.84
6530;BME280;3298;42.688;23.366;2023-02-18T10:23:59;51741.66;;;-145.06;38.39
6530;BME280;3298;42.688;23.366;2023-02-18T10:26:28;51749.84;;;-145.06;38.47
6530;BME280;3298;42.688;23.366;2023-02-18T10:28:56;51735.50;;;-145.06;38.06
6530;BME280;3298;42.688;23.366;2023-02-18T10:31:28;51733.47;;;-145.06;38.02
6530;BME280;3298;42.688;23.366;2023-02-18T10:33:59;51753.94;;;-145.06;37.99
6530;BME280;3298;42.688;23.366;2023-02-18T10:36:35;51753.94;;;-145.06;37.63
6530;BME280;3298;42.688;23.366;2023-02-18T10:39:30;51751.88;;;-145.06;37.64
6530;BME280;3298;42.688;23.366;2023-02-18T10:42:09;51737.56;;;-145.06;37.86
6530;BME280;3298;42.688;23.366;2023-02-18T10:44:45;51770.31;;;-145.06;37.28
6530;BME280;3298;42.688;23.366;2023-02-18T10:47:25;51745.75;;;-145.06;37.27
6530;BME280;3298;42.688;23.366;2023-02-18T10:49:58;51735.50;;;-145.06;36.84
6530;BME280;3298;42.688;23.366;2023-02-18T10:52:27;51747.78;;;-145.06;36.76
6530;BME280;3298;42.688;23.366;2023-02-18T10:54:59;51770.31;;;-145.06;35.95
6530;BME280;3298;42.688;23.366;2023-02-18T10:57:29;51764.16;;;-145.06;34.63
6530;BME280;3298;42.688;23.366;2023-02-18T10:59:58;51753.94;;;-145.06;33.84
6530;BME280;3298;42.688;23.366;2023-02-18T11:02:29;51780.53;;;-145.06;33.59
6530;BME280;3298;42.688;23.366;2023-02-18T11:04:59;51786.69;;;-145.06;33.25
6530;BME280;3298;42.688;23.366;2023-02-18T11:07:33;51764.16;;;-145.06;33.95
6530;BME280;3298;42.688;23.366;2023-02-18T11:10:12;51768.25;;;-145.06;34.31
6530;BME280;3298;42.688;23.366;2023-02-18T11:12:43;51770.31;;;-145.06;33.04
6530;BME280;3298;42.688;23.366;2023-02-18T11:15:20;51770.31;;;-145.06;33.11
6530;BME280;3298;42.688;23.366;2023-02-18T11:17:50;51794.88;;;-145.06;33.17
6530;BME280;3298;42.688;23.366;2023-02-18T11:20:25;51778.50;;;-145.06;32.53
6530;BME280;3298;42.688;23.366;2023-02-18T11:22:57;51741.66;;;-145.06;32.04
6530;BME280;3298;42.688;23.366;2023-02-18T11:25:27;51778.50;;;-145.06;32.12
6530;BME280;3298;42.688;23.366;2023-02-18T11:27:59;51770.31;;;-145.06;31.63
6530;BME280;3298;42.688;23.366;2023-02-18T11:30:30;51807.16;;;-145.06;30.96
6530;BME280;3298;42.688;23.366;2023-02-18T11:33:00;51762.13;;;-145.06;30.74
6530;BME280;3298;42.688;23.366;2023-02-18T11:35:31;51749.84;;;-145.06;30.38
6530;BME280;3298;42.688;23.366;2023-02-18T11:37:59;51747.78;;;-145.06;29.08
6530;BME280;3298;42.688;23.366;2023-02-18T11:40:30;51762.13;;;-145.06;27.71
6530;BME280;3298;42.688;23.366;2023-02-18T11:43:06;51803.06;;;-145.06;28.00
6530;BME280;3298;42.688;23.366;2023-02-18T11:45:34;51788.72;;;-145.06;29.24
6530;BME280;3298;42.688;23.366;2023-02-18T11:48:06;51798.97;;;-145.06;28.00
6530;BME280;3298;42.688;23.366;2023-02-18T11:50:34;51819.44;;;-145.06;26.98
6530;BME280;3298;42.688;23.366;2023-02-18T11:53:25;51829.66;;;-145.06;26.22
6530;BME280;3298;42.688;23.366;2023-02-18T11:55:56;51823.53;;;-145.06;27.55
6530;BME280;3298;42.688;23.366;2023-02-18T11:58:23;51821.47;;;-145.06;29.78
6530;BME280;3298;42.688;23.366;2023-02-18T12:00:53;51794.88;;;-145.06;30.29
6530;BME280;3298;42.688;23.366;2023-02-18T12:03:28;51772.34;;;-145.06;31.16
6530;BME280;3298;42.688;23.366;2023-02-18T12:05:57;51731.41;;;-145.06;31.13
6530;BME280;3298;42.688;23.366;2023-02-18T12:08:27;51784.63;;;-145.06;31.57
6530;BME280;3298;42.688;23.366;2023-02-18T12:11:00;51758.03;;;-145.06;31.78
6530;BME280;3298;42.688;23.366;2023-02-18T12:13:32;51772.34;;;-145.06;32.19
6530;BME280;3298;42.688;23.366;2023-02-18T12:16:08;51739.59;;;-145.06;31.87
6530;BME280;3298;42.688;23.366;2023-02-18T12:18:57;51790.78;;;-145.06;31.93
6530;BME280;3298;42.688;23.366;2023-02-18T12:21:48;51770.31;;;-145.06;31.93
6530;BME280;3298;42.688;23.366;2023-02-18T12:24:32;51782.59;;;-145.06;32.07
6530;BME280;3298;42.688;23.366;2023-02-18T12:27:11;51807.16;;;-145.06;32.46
6530;BME280;3298;42.688;23.366;2023-02-18T12:30:20;51801.00;;;-145.06;32.23
6530;BME280;3298;42.688;23.366;2023-02-18T12:32:55;51803.06;;;-145.06;32.28
6530;BME280;3298;42.688;23.366;2023-02-18T12:35:38;51770.31;;;-145.06;32.52
6530;BME280;3298;42.688;23.366;2023-02-18T12:38:38;51794.88;;;-145.06;32.86
6530;BME280;3298;42.688;23.366;2023-02-18T12:41:29;51766.22;;;-145.06;33.07
6530;BME280;3298;42.688;23.366;2023-02-18T12:44:08;51770.31;;;-145.06;33.25
6530;BME280;3298;42.688;23.366;2023-02-18T12:46:49;51782.59;;;-145.06;33.25
6530;BME280;3298;42.688;23.366;2023-02-18T12:49:30;51790.78;;;-145.06;33.07
6530;BME280;3298;42.688;23.366;2023-02-18T12:52:15;51790.78;;;-145.06;33.48
6530;BME280;3298;42.688;23.366;2023-02-18T12:55:05;51813.28;;;-145.06;33.48
6530;BME280;3298;42.688;23.366;2023-02-18T12:57:41;51792.81;;;-145.06;33.45
6530;BME280;3298;42.688;23.366;2023-02-18T13:00:30;51766.22;;;-145.06;33.37
6530;BME280;3298;42.688;23.366;2023-02-18T13:06:22;51794.88;;;-145.06;32.57
6530;BME280;3298;42.688;23.366;2023-02-18T13:09:01;51815.34;;;-145.06;32.23
6530;BME280;3298;42.688;23.366;2023-02-18T13:11:46;51782.59;;;-145.06;32.56
6530;BME280;3298;42.688;23.366;2023-02-18T13:14:19;51780.53;;;-145.06;32.38
6530;BME280;3298;42.688;23.366;2023-02-18T13:16:51;51796.91;;;-145.06;32.21